This is the latest recevied weather packets stored in our database for station/object LRTM. If no packets are shown the sender has not sent any weather packets the latest 10 day(s).
| Time | Temp. | Humidity | Pressure | Rain* | Wind** | Luminosity | Snow |
|---|---|---|---|---|---|---|---|
| 1777763907 | 3.89° C | 75% | 1023 hPa | - | - | - | - |
| 1777763007 | 3.89° C | 75% | 1023 hPa | - | - | - | - |
| 1777762106 | 2.78° C | 75% | 1023 hPa | - | - | - | - |
| 1777761206 | 2.78° C | 75% | 1023 hPa | - | - | - | - |
| 1777760306 | 6.11° C | 71% | 1023 hPa | - | - | - | - |
| 1777759406 | 6.11° C | 71% | 1023 hPa | - | - | - | - |
| 1777758506 | 5° C | 76% | 1022 hPa | - | - | - | - |
| 1777757607 | 5° C | 76% | 1022 hPa | - | - | - | - |
| 1777756706 | 7.22° C | 66% | 1022 hPa | - | - | - | - |
| 1777755806 | 7.22° C | 66% | 1022 hPa | - | - | - | - |
| 1777754906 | 7.78° C | 62% | 1022 hPa | - | - | - | - |
| 1777754006 | 7.78° C | 62% | 1022 hPa | - | - | - | - |
| 1777753107 | 7.78° C | 66% | 1022 hPa | - | - | - | - |
| 1777752206 | 7.78° C | 66% | 1022 hPa | - | - | - | - |
| 1777751306 | 7.78° C | 66% | 1022 hPa | - | - | - | - |
| 1777750407 | 7.78° C | 66% | 1022 hPa | - | - | - | - |
| 1777749506 | 8.89° C | 66% | 1022 hPa | - | - | - | - |
| 1777748606 | 8.89° C | 66% | 1022 hPa | - | - | - | - |
| 1777747706 | 10° C | 62% | 1021 hPa | - | - | - | - |
| 1777746806 | 10° C | 62% | 1021 hPa | - | - | - | - |
| 1777745907 | 11.11° C | 58% | 1021 hPa | - | - | - | - |
| 1777745006 | 11.11° C | 58% | 1021 hPa | - | - | - | - |
| 1777744106 | 12.22° C | 44% | 1020 hPa | - | - | - | - |
| 1777743206 | 12.22° C | 44% | 1020 hPa | - | - | - | - |
| 1777742306 | 13.89° C | 39% | 1020 hPa | - | - | - | - |
* Rain since midnight (hover to see other rain measurements)
** Current wind speed in m/s (hover to see current wind gust speed)